Flight Track Log - Related Links

Times and Time Zones

All times are in EDT time to prevent confusion due to time zone crossing. See the RPA4911 flight status page for this flight to view local times or setup timezone preferences in your user account.

Time Position Orientation Groundspeed Altitude Reporting Facility
EDT Latitude Longitude Course Direction KTS MPH feet Rate Location/Type
Wed 06:07:53 AM 42.7339 -73.8081 200° South 155 178 1,300  Level Boston Center
Wed 06:08:23 AM 42.7069 -73.8047 175° South 178 205 2,400 2,390 Climbing Boston Center
Wed 06:09:56 AM 42.6353 -73.8597 209° Southwest 213 245 6,200 2,392 Climbing Boston Center
Wed 06:10:56 AM 42.5725 -73.8808 194° South 226 260 8,500 2,200 Climbing Boston Center
Wed 06:11:56 AM 42.4972 -73.9156 199° South 253 291 10,600 1,850 Climbing Boston Center
Wed 06:12:56 AM 42.4347 -73.9058 173° South 251 289 12,200 1,650 Climbing Boston Center
Wed 06:13:00 AM 42.1939 -73.9033 200° South  Level Estimated
Wed 06:13:56 AM 42.4050 -73.7814 108° East 268 308 13,900  Level Boston Center
Wed 06:14:56 AM 42.3811 -73.6767 107° East 304 350 14,000 45 Climbing Boston Center
Wed 06:16:08 AM 42.3036 -73.7061 196° South 220 253 14,000  Level Boston Center
Wed 06:17:08 AM 42.3003 -73.8211 268° West 165 190 14,000  Level Boston Center
Wed 06:18:08 AM 42.2494 -73.8900 225° Southwest 303 349 14,000  Level Boston Center
Wed 06:19:08 AM 42.1569 -73.9439 203° Southwest 317 365 14,000  Level Boston Center
Wed 06:20:08 AM 42.0856 -73.9869 204° Southwest 327 376 14,000  Level Boston Center
Wed 06:21:08 AM 41.9953 -74.0436 205° Southwest 327 376 14,000 50 Level Boston Center
Wed 06:22:08 AM 41.9236 -74.0864 204° Southwest 320 368 14,100 50 Climbing Boston Center
Wed 06:23:08 AM 41.8436 -74.1372 205° Southwest 320 368 14,100 -400 Level Boston Center
Wed 06:24:08 AM 41.7594 -74.1878 204° Southwest 320 368 13,300 -1,000 Descending Boston Center
Wed 06:25:08 AM 41.6922 -74.2250 202° Southwest 301 346 12,100 -1,250 Descending Boston Center
Wed 06:26:08 AM 41.6167 -74.2700 204° Southwest 281 323 10,800 -1,200 Descending Boston Center
Wed 06:27:08 AM 41.5575 -74.3044 204° Southwest 267 307 9,700 -1,200 Descending Boston Center
Wed 06:28:08 AM 41.4881 -74.3467 204° Southwest 261 300 8,400 -951 Descending Boston Center
Wed 06:29:52 AM 41.3833 -74.4000 201° Southwest 243 280 7,100 -476 Descending New TRACON
Wed 06:30:52 AM 41.3167 -74.3833 169° South 268 308 7,100 -400 Level New TRACON
Wed 06:31:52 AM 41.2500 -74.3500 159° South 268 308 6,300 -1,000 Descending New TRACON
Wed 06:32:52 AM 41.1833 -74.3000 151° Southeast 268 308 5,100 -1,050 Descending New TRACON
Wed 06:33:52 AM 41.1167 -74.2500 151° Southeast 250 288 4,200 -500 Descending New TRACON
Wed 06:34:52 AM 41.0500 -74.2000 151° Southeast 255 293 4,100 -50 Descending New TRACON
Wed 06:35:52 AM 41.0000 -74.1667 153° Southeast 252 290 4,100 -450 Level New TRACON
Wed 06:36:52 AM 40.9333 -74.1167 150° Southeast 250 288 3,200 -550 Descending New TRACON
Wed 06:37:52 AM 40.8667 -74.0833 159° South 240 276 3,000 -300 Descending New TRACON
Wed 06:38:52 AM 40.8167 -74.0833 180° South 173 199 2,600 -550 Descending New TRACON
Wed 06:39:52 AM 40.7833 -74.1000 201° Southwest 143 165 1,900 -700 Descending New TRACON

Login

Don't have an account? Register now (free) for customized features, flight alerts, and more!